sensor_id;sensor_type;location;lat;lon;timestamp;pressure;altitude;pressure_sealevel;temperature
75658;BMP280;64255;49.892;17.884;2022-12-18T00:01:25;100146.66;;;-5.41
75658;BMP280;64255;49.892;17.884;2022-12-18T00:03:55;100145.72;;;-5.46
75658;BMP280;64255;49.892;17.884;2022-12-18T00:06:24;100143.44;;;-5.47
75658;BMP280;64255;49.892;17.884;2022-12-18T00:08:53;100164.31;;;-5.47
75658;BMP280;64255;49.892;17.884;2022-12-18T00:11:24;100152.94;;;-5.51
75658;BMP280;64255;49.892;17.884;2022-12-18T00:13:56;100159.84;;;-5.55
75658;BMP280;64255;49.892;17.884;2022-12-18T00:16:26;100162.91;;;-5.53
75658;BMP280;64255;49.892;17.884;2022-12-18T00:18:59;100162.91;;;-5.53
75658;BMP280;64255;49.892;17.884;2022-12-18T00:21:29;100160.44;;;-5.58
75658;BMP280;64255;49.892;17.884;2022-12-18T00:23:59;100162.00;;;-5.57
75658;BMP280;64255;49.892;17.884;2022-12-18T00:26:30;100164.75;;;-5.63
75658;BMP280;64255;49.892;17.884;2022-12-18T00:29:13;100166.28;;;-5.62
75658;BMP280;64255;49.892;17.884;2022-12-18T00:31:42;100173.63;;;-5.64
75658;BMP280;64255;49.892;17.884;2022-12-18T00:34:11;100172.56;;;-5.63
75658;BMP280;64255;49.892;17.884;2022-12-18T00:36:39;100171.50;;;-5.62
75658;BMP280;64255;49.892;17.884;2022-12-18T00:39:08;100172.56;;;-5.63
75658;BMP280;64255;49.892;17.884;2022-12-18T00:41:35;100176.72;;;-5.62
75658;BMP280;64255;49.892;17.884;2022-12-18T00:44:05;100174.88;;;-5.61
75658;BMP280;64255;49.892;17.884;2022-12-18T00:46:33;100183.16;;;-5.59
75658;BMP280;64255;49.892;17.884;2022-12-18T00:49:00;100192.25;;;-5.56
75658;BMP280;64255;49.892;17.884;2022-12-18T00:51:27;100185.47;;;-5.57
75658;BMP280;64255;49.892;17.884;2022-12-18T00:53:54;100193.31;;;-5.57
75658;BMP280;64255;49.892;17.884;2022-12-18T00:56:23;100195.59;;;-5.56
75658;BMP280;64255;49.892;17.884;2022-12-18T00:58:51;100196.72;;;-5.48
75658;BMP280;64255;49.892;17.884;2022-12-18T01:01:18;100196.25;;;-5.41
75658;BMP280;64255;49.892;17.884;2022-12-18T01:03:46;100199.97;;;-5.16
75658;BMP280;64255;49.892;17.884;2022-12-18T01:06:15;100204.75;;;-5.00
75658;BMP280;64255;49.892;17.884;2022-12-18T01:08:44;100207.81;;;-4.90
75658;BMP280;64255;49.892;17.884;2022-12-18T01:11:15;100218.88;;;-5.10
75658;BMP280;64255;49.892;17.884;2022-12-18T01:13:43;100216.84;;;-4.52
75658;BMP280;64255;49.892;17.884;2022-12-18T01:16:16;100215.63;;;-4.54
75658;BMP280;64255;49.892;17.884;2022-12-18T01:18:45;100221.75;;;-4.03
75658;BMP280;64255;49.892;17.884;2022-12-18T01:21:15;100217.91;;;-3.97
75658;BMP280;64255;49.892;17.884;2022-12-18T01:23:50;100219.13;;;-3.94
75658;BMP280;64255;49.892;17.884;2022-12-18T01:26:17;100228.44;;;-4.14
75658;BMP280;64255;49.892;17.884;2022-12-18T01:28:45;100226.00;;;-4.28
75658;BMP280;64255;49.892;17.884;2022-12-18T01:31:20;100224.09;;;-4.75
75658;BMP280;64255;49.892;17.884;2022-12-18T01:33:48;100217.31;;;-4.41
75658;BMP280;64255;49.892;17.884;2022-12-18T01:36:22;100229.78;;;-4.64
75658;BMP280;64255;49.892;17.884;2022-12-18T01:38:51;100242.25;;;-4.88
75658;BMP280;64255;49.892;17.884;2022-12-18T01:41:28;100240.56;;;-5.01
75658;BMP280;64255;49.892;17.884;2022-12-18T01:43:57;100241.91;;;-5.04
75658;BMP280;64255;49.892;17.884;2022-12-18T01:46:27;100238.69;;;-5.09
75658;BMP280;64255;49.892;17.884;2022-12-18T01:49:00;100239.44;;;-5.26
75658;BMP280;64255;49.892;17.884;2022-12-18T01:51:30;100247.25;;;-5.35
75658;BMP280;64255;49.892;17.884;2022-12-18T01:53:59;100243.41;;;-5.38
75658;BMP280;64255;49.892;17.884;2022-12-18T01:56:26;100246.00;;;-5.38
75658;BMP280;64255;49.892;17.884;2022-12-18T01:59:06;100246.19;;;-5.43
75658;BMP280;64255;49.892;17.884;2022-12-18T02:01:36;100248.91;;;-5.48
75658;BMP280;64255;49.892;17.884;2022-12-18T02:04:34;100257.66;;;-5.53
75658;BMP280;64255;49.892;17.884;2022-12-18T02:07:33;100250.59;;;-5.52
75658;BMP280;64255;49.892;17.884;2022-12-18T02:10:27;100254.25;;;-5.53
75658;BMP280;64255;49.892;17.884;2022-12-18T02:14:10;100257.34;;;-5.60
75658;BMP280;64255;49.892;17.884;2022-12-18T02:26:15;100279.03;;;-5.51
75658;BMP280;64255;49.892;17.884;2022-12-18T02:29:10;100277.00;;;-5.54
75658;BMP280;64255;49.892;17.884;2022-12-18T02:32:00;100286.03;;;-5.60
75658;BMP280;64255;49.892;17.884;2022-12-18T02:34:33;100280.34;;;-5.62
75658;BMP280;64255;49.892;17.884;2022-12-18T02:37:09;100286.66;;;-5.63
75658;BMP280;64255;49.892;17.884;2022-12-18T02:39:42;100285.31;;;-5.52
75658;BMP280;64255;49.892;17.884;2022-12-18T02:42:12;100288.69;;;-5.51
75658;BMP280;64255;49.892;17.884;2022-12-18T02:44:50;100291.09;;;-5.55
75658;BMP280;64255;49.892;17.884;2022-12-18T02:47:22;100300.19;;;-5.52
75658;BMP280;64255;49.892;17.884;2022-12-18T02:50:17;100291.28;;;-5.51
75658;BMP280;64255;49.892;17.884;2022-12-18T02:58:18;100294.69;;;-5.51
75658;BMP280;64255;49.892;17.884;2022-12-18T03:04:30;100290.63;;;-5.57
75658;BMP280;64255;49.892;17.884;2022-12-18T03:07:05;100306.13;;;-5.61
75658;BMP280;64255;49.892;17.884;2022-12-18T03:09:40;100307.69;;;-5.59
75658;BMP280;64255;49.892;17.884;2022-12-18T03:12:24;100303.69;;;-5.66
75658;BMP280;64255;49.892;17.884;2022-12-18T03:17:41;100311.69;;;-5.62
75658;BMP280;64255;49.892;17.884;2022-12-18T03:20:16;100308.50;;;-5.50
75658;BMP280;64255;49.892;17.884;2022-12-18T03:22:51;100318.72;;;-5.63
75658;BMP280;64255;49.892;17.884;2022-12-18T03:25:20;100317.03;;;-5.67
75658;BMP280;64255;49.892;17.884;2022-12-18T03:27:54;100322.25;;;-5.67
75658;BMP280;64255;49.892;17.884;2022-12-18T03:30:22;100320.41;;;-5.67
75658;BMP280;64255;49.892;17.884;2022-12-18T03:33:08;100329.88;;;-5.71
75658;BMP280;64255;49.892;17.884;2022-12-18T03:35:41;100331.94;;;-5.68
75658;BMP280;64255;49.892;17.884;2022-12-18T03:38:11;100329.78;;;-5.66
75658;BMP280;64255;49.892;17.884;2022-12-18T03:40:56;100335.91;;;-5.62
75658;BMP280;64255;49.892;17.884;2022-12-18T03:43:50;100349.69;;;-5.70
75658;BMP280;64255;49.892;17.884;2022-12-18T03:47:05;100349.88;;;-5.66
75658;BMP280;64255;49.892;17.884;2022-12-18T03:49:57;100356.72;;;-5.70
75658;BMP280;64255;49.892;17.884;2022-12-18T03:52:52;100356.16;;;-5.67
75658;BMP280;64255;49.892;17.884;2022-12-18T03:55:23;100357.53;;;-5.70
75658;BMP280;64255;49.892;17.884;2022-12-18T03:57:52;100356.66;;;-5.65
75658;BMP280;64255;49.892;17.884;2022-12-18T04:00:21;100365.53;;;-5.66
75658;BMP280;64255;49.892;17.884;2022-12-18T04:02:55;100364.78;;;-5.67
75658;BMP280;64255;49.892;17.884;2022-12-18T04:05:27;100363.72;;;-5.66
75658;BMP280;64255;49.892;17.884;2022-12-18T04:07:56;100361.84;;;-5.65
75658;BMP280;64255;49.892;17.884;2022-12-18T04:10:24;100367.00;;;-5.74
75658;BMP280;64255;49.892;17.884;2022-12-18T04:12:56;100360.88;;;-5.69
75658;BMP280;64255;49.892;17.884;2022-12-18T04:15:24;100358.94;;;-5.64
75658;BMP280;64255;49.892;17.884;2022-12-18T04:17:51;100371.31;;;-5.69
75658;BMP280;64255;49.892;17.884;2022-12-18T04:20:19;100362.75;;;-5.70
75658;BMP280;64255;49.892;17.884;2022-12-18T04:22:46;100365.53;;;-5.66
75658;BMP280;64255;49.892;17.884;2022-12-18T04:25:14;100367.84;;;-5.65
75658;BMP280;64255;49.892;17.884;2022-12-18T04:27:41;100378.41;;;-5.70
75658;BMP280;64255;49.892;17.884;2022-12-18T04:30:09;100380.84;;;-5.73
75658;BMP280;64255;49.892;17.884;2022-12-18T04:32:36;100393.59;;;-5.72
75658;BMP280;64255;49.892;17.884;2022-12-18T04:35:04;100384.59;;;-5.66
75658;BMP280;64255;49.892;17.884;2022-12-18T04:37:31;100385.22;;;-5.60
75658;BMP280;64255;49.892;17.884;2022-12-18T04:39:59;100397.25;;;-5.50
75658;BMP280;64255;49.892;17.884;2022-12-18T04:42:25;100389.34;;;-5.68
75658;BMP280;64255;49.892;17.884;2022-12-18T04:44:53;100397.50;;;-5.61
75658;BMP280;64255;49.892;17.884;2022-12-18T04:47:20;100397.50;;;-5.61
75658;BMP280;64255;49.892;17.884;2022-12-18T04:49:47;100398.09;;;-5.64
75658;BMP280;64255;49.892;17.884;2022-12-18T04:52:14;100396.84;;;-5.66
75658;BMP280;64255;49.892;17.884;2022-12-18T04:54:41;100403.63;;;-5.65
75658;BMP280;64255;49.892;17.884;2022-12-18T04:57:09;100402.56;;;-5.64
75658;BMP280;64255;49.892;17.884;2022-12-18T04:59:36;100401.41;;;-5.72
75658;BMP280;64255;49.892;17.884;2022-12-18T05:02:03;100400.78;;;-5.78
75658;BMP280;64255;49.892;17.884;2022-12-18T05:04:31;100408.94;;;-5.70
75658;BMP280;64255;49.892;17.884;2022-12-18T05:06:58;100419.91;;;-5.59
75658;BMP280;64255;49.892;17.884;2022-12-18T05:09:25;100410.88;;;-5.53
75658;BMP280;64255;49.892;17.884;2022-12-18T05:11:53;100413.59;;;-5.67
75658;BMP280;64255;49.892;17.884;2022-12-18T05:14:20;100411.53;;;-5.70
75658;BMP280;64255;49.892;17.884;2022-12-18T05:16:46;100402.88;;;-5.66
75658;BMP280;64255;49.892;17.884;2022-12-18T05:19:14;100417.75;;;-5.66
75658;BMP280;64255;49.892;17.884;2022-12-18T05:21:41;100414.09;;;-5.56
75658;BMP280;64255;49.892;17.884;2022-12-18T05:24:08;100413.31;;;-5.66
75658;BMP280;64255;49.892;17.884;2022-12-18T05:26:35;100422.94;;;-5.66
75658;BMP280;64255;49.892;17.884;2022-12-18T05:29:03;100426.03;;;-5.64
75658;BMP280;64255;49.892;17.884;2022-12-18T05:31:30;100428.66;;;-5.64
75658;BMP280;64255;49.892;17.884;2022-12-18T05:33:57;100420.66;;;-5.68
75658;BMP280;64255;49.892;17.884;2022-12-18T05:36:25;100423.81;;;-5.48
75658;BMP280;64255;49.892;17.884;2022-12-18T05:38:52;100430.88;;;-5.71
75658;BMP280;64255;49.892;17.884;2022-12-18T05:41:19;100430.13;;;-5.72
75658;BMP280;64255;49.892;17.884;2022-12-18T05:43:47;100431.09;;;-5.68
75658;BMP280;64255;49.892;17.884;2022-12-18T05:46:17;100433.88;;;-5.64
75658;BMP280;64255;49.892;17.884;2022-12-18T05:48:45;100436.00;;;-5.66
75658;BMP280;64255;49.892;17.884;2022-12-18T05:51:15;100431.84;;;-5.67
75658;BMP280;64255;49.892;17.884;2022-12-18T05:53:43;100439.59;;;-5.76
75658;BMP280;64255;49.892;17.884;2022-12-18T05:56:18;100431.31;;;-5.78
75658;BMP280;64255;49.892;17.884;2022-12-18T05:58:46;100438.69;;;-5.80
75658;BMP280;64255;49.892;17.884;2022-12-18T06:01:18;100434.59;;;-5.86
75658;BMP280;64255;49.892;17.884;2022-12-18T06:03:46;100435.41;;;-5.86
75658;BMP280;64255;49.892;17.884;2022-12-18T06:06:21;100436.34;;;-5.82
75658;BMP280;64255;49.892;17.884;2022-12-18T06:08:51;100444.97;;;-5.81
75658;BMP280;64255;49.892;17.884;2022-12-18T06:11:24;100450.84;;;-5.89
75658;BMP280;64255;49.892;17.884;2022-12-18T06:13:54;100457.44;;;-5.92
75658;BMP280;64255;49.892;17.884;2022-12-18T06:16:22;100468.44;;;-5.58
75658;BMP280;64255;49.892;17.884;2022-12-18T06:18:49;100466.31;;;-5.34
75658;BMP280;64255;49.892;17.884;2022-12-18T06:21:16;100468.91;;;-5.56
75658;BMP280;64255;49.892;17.884;2022-12-18T06:23:43;100474.91;;;-5.79
75658;BMP280;64255;49.892;17.884;2022-12-18T06:26:13;100472.69;;;-5.85
75658;BMP280;64255;49.892;17.884;2022-12-18T06:28:41;100475.44;;;-5.91
75658;BMP280;64255;49.892;17.884;2022-12-18T06:31:09;100474.63;;;-5.91
75658;BMP280;64255;49.892;17.884;2022-12-18T06:33:36;100485.66;;;-5.80
75658;BMP280;64255;49.892;17.884;2022-12-18T06:36:10;100491.84;;;-5.90
75658;BMP280;64255;49.892;17.884;2022-12-18T06:38:41;100494.97;;;-6.02
75658;BMP280;64255;49.892;17.884;2022-12-18T06:41:11;100493.41;;;-6.03
75658;BMP280;64255;49.892;17.884;2022-12-18T06:43:38;100495.81;;;-6.07
75658;BMP280;64255;49.892;17.884;2022-12-18T06:46:06;100501.16;;;-6.12
75658;BMP280;64255;49.892;17.884;2022-12-18T06:48:34;100500.38;;;-6.12
75658;BMP280;64255;49.892;17.884;2022-12-18T06:51:02;100503.56;;;-6.15
75658;BMP280;64255;49.892;17.884;2022-12-18T06:53:31;100507.63;;;-6.09
75658;BMP280;64255;49.892;17.884;2022-12-18T06:56:08;100514.88;;;-6.06
75658;BMP280;64255;49.892;17.884;2022-12-18T06:58:35;100515.03;;;-6.02
75658;BMP280;64255;49.892;17.884;2022-12-18T07:01:06;100522.22;;;-6.08
75658;BMP280;64255;49.892;17.884;2022-12-18T07:03:34;100522.31;;;-6.13
75658;BMP280;64255;49.892;17.884;2022-12-18T07:06:01;100527.63;;;-6.18
75658;BMP280;64255;49.892;17.884;2022-12-18T07:08:30;100534.38;;;-6.17
75658;BMP280;64255;49.892;17.884;2022-12-18T07:10:58;100545.56;;;-6.17
75658;BMP280;64255;49.892;17.884;2022-12-18T07:13:26;100548.59;;;-6.10
75658;BMP280;64255;49.892;17.884;2022-12-18T07:15:53;100551.94;;;-5.95
75658;BMP280;64255;49.892;17.884;2022-12-18T07:18:20;100555.41;;;-5.86
75658;BMP280;64255;49.892;17.884;2022-12-18T07:20:47;100555.38;;;-6.09
75658;BMP280;64255;49.892;17.884;2022-12-18T07:23:15;100555.81;;;-5.93
75658;BMP280;64255;49.892;17.884;2022-12-18T07:25:42;100559.09;;;-5.87
75658;BMP280;64255;49.892;17.884;2022-12-18T07:28:10;100575.22;;;-5.85
75658;BMP280;64255;49.892;17.884;2022-12-18T07:30:38;100570.28;;;-5.86
75658;BMP280;64255;49.892;17.884;2022-12-18T07:33:05;100568.81;;;-5.65
75658;BMP280;64255;49.892;17.884;2022-12-18T07:35:36;100567.59;;;-5.95
75658;BMP280;64255;49.892;17.884;2022-12-18T07:38:03;100572.34;;;-5.83
75658;BMP280;64255;49.892;17.884;2022-12-18T07:40:30;100586.50;;;-5.89
75658;BMP280;64255;49.892;17.884;2022-12-18T07:42:57;100586.34;;;-5.79
75658;BMP280;64255;49.892;17.884;2022-12-18T07:45:25;100580.16;;;-5.83
75658;BMP280;64255;49.892;17.884;2022-12-18T07:47:52;100582.56;;;-5.87
75658;BMP280;64255;49.892;17.884;2022-12-18T07:50:19;100581.13;;;-5.79
75658;BMP280;64255;49.892;17.884;2022-12-18T07:52:46;100583.88;;;-5.62
75658;BMP280;64255;49.892;17.884;2022-12-18T07:55:13;100575.28;;;-5.62
75658;BMP280;64255;49.892;17.884;2022-12-18T07:57:41;100590.50;;;-5.78
75658;BMP280;64255;49.892;17.884;2022-12-18T08:00:09;100589.25;;;-5.95
75658;BMP280;64255;49.892;17.884;2022-12-18T08:02:36;100579.78;;;-5.91
75658;BMP280;64255;49.892;17.884;2022-12-18T08:05:04;100586.81;;;-5.91
75658;BMP280;64255;49.892;17.884;2022-12-18T08:07:32;100595.41;;;-5.77
75658;BMP280;64255;49.892;17.884;2022-12-18T08:09:59;100589.06;;;-5.84
75658;BMP280;64255;49.892;17.884;2022-12-18T08:12:26;100586.34;;;-5.79
75658;BMP280;64255;49.892;17.884;2022-12-18T08:14:53;100578.75;;;-5.53
75658;BMP280;64255;49.892;17.884;2022-12-18T08:17:21;100587.69;;;-5.68
75658;BMP280;64255;49.892;17.884;2022-12-18T08:19:47;100597.31;;;-5.54
75658;BMP280;64255;49.892;17.884;2022-12-18T08:22:14;100593.59;;;-5.53
75658;BMP280;64255;49.892;17.884;2022-12-18T08:24:42;100596.34;;;-5.58
75658;BMP280;64255;49.892;17.884;2022-12-18T08:27:09;100599.25;;;-5.60
75658;BMP280;64255;49.892;17.884;2022-12-18T08:29:36;100600.63;;;-5.77
75658;BMP280;64255;49.892;17.884;2022-12-18T08:32:03;100602.34;;;-5.72
75658;BMP280;64255;49.892;17.884;2022-12-18T08:34:30;100605.50;;;-5.47
75658;BMP280;64255;49.892;17.884;2022-12-18T08:36:57;100606.22;;;-5.55
75658;BMP280;64255;49.892;17.884;2022-12-18T08:39:25;100610.78;;;-5.61
75658;BMP280;64255;49.892;17.884;2022-12-18T08:41:52;100611.63;;;-5.52
75658;BMP280;64255;49.892;17.884;2022-12-18T08:44:19;100613.78;;;-5.68
75658;BMP280;64255;49.892;17.884;2022-12-18T08:46:46;100605.91;;;-5.54
75658;BMP280;64255;49.892;17.884;2022-12-18T08:49:14;100615.69;;;-5.59
75658;BMP280;64255;49.892;17.884;2022-12-18T08:51:41;100624.38;;;-5.50
75658;BMP280;64255;49.892;17.884;2022-12-18T08:54:11;100621.09;;;-5.56
75658;BMP280;64255;49.892;17.884;2022-12-18T08:56:39;100625.66;;;-5.25
75658;BMP280;64255;49.892;17.884;2022-12-18T08:59:06;100623.97;;;-5.07
75658;BMP280;64255;49.892;17.884;2022-12-18T09:01:34;100612.88;;;-5.26
75658;BMP280;64255;49.892;17.884;2022-12-18T09:04:02;100618.47;;;-5.19
75658;BMP280;64255;49.892;17.884;2022-12-18T09:06:30;100631.81;;;-5.21
75658;BMP280;64255;49.892;17.884;2022-12-18T09:08:57;100641.75;;;-5.32
75658;BMP280;64255;49.892;17.884;2022-12-18T09:11:28;100640.22;;;-5.47
75658;BMP280;64255;49.892;17.884;2022-12-18T09:13:56;100636.81;;;-5.33
75658;BMP280;64255;49.892;17.884;2022-12-18T09:16:26;100627.31;;;-5.29
75658;BMP280;64255;49.892;17.884;2022-12-18T09:18:55;100641.13;;;-5.28
75658;BMP280;64255;49.892;17.884;2022-12-18T09:21:23;100618.38;;;-5.51
75658;BMP280;64255;49.892;17.884;2022-12-18T09:23:55;100631.16;;;-5.26
75658;BMP280;64255;49.892;17.884;2022-12-18T09:26:25;100634.06;;;-5.51
75658;BMP280;64255;49.892;17.884;2022-12-18T09:28:53;100629.97;;;-5.57
75658;BMP280;64255;49.892;17.884;2022-12-18T09:31:23;100620.88;;;-5.46
75658;BMP280;64255;49.892;17.884;2022-12-18T09:33:51;100630.66;;;-5.51
75658;BMP280;64255;49.892;17.884;2022-12-18T09:36:19;100619.53;;;-5.43
75658;BMP280;64255;49.892;17.884;2022-12-18T09:38:46;100613.59;;;-5.35
75658;BMP280;64255;49.892;17.884;2022-12-18T09:41:35;100611.31;;;-5.50
75658;BMP280;64255;49.892;17.884;2022-12-18T09:44:29;100616.66;;;-5.55
75658;BMP280;64255;49.892;17.884;2022-12-18T09:50:06;100616.53;;;-5.50
75658;BMP280;64255;49.892;17.884;2022-12-18T09:52:51;100624.47;;;-5.55
75658;BMP280;64255;49.892;17.884;2022-12-18T09:55:34;100637.31;;;-5.59
75658;BMP280;64255;49.892;17.884;2022-12-18T10:00:36;100631.94;;;-5.49
75658;BMP280;64255;49.892;17.884;2022-12-18T10:03:14;100619.97;;;-5.41
75658;BMP280;64255;49.892;17.884;2022-12-18T10:12:30;100596.47;;;-5.41
75658;BMP280;64255;49.892;17.884;2022-12-18T10:15:36;100593.19;;;-5.33
75658;BMP280;64255;49.892;17.884;2022-12-18T10:18:33;100592.63;;;-5.43
75658;BMP280;64255;49.892;17.884;2022-12-18T10:21:17;100591.66;;;-5.34
75658;BMP280;64255;49.892;17.884;2022-12-18T10:26:49;100589.09;;;-5.25
75658;BMP280;64255;49.892;17.884;2022-12-18T10:29:17;100590.66;;;-5.38
75658;BMP280;64255;49.892;17.884;2022-12-18T10:31:44;100600.97;;;-5.55
75658;BMP280;64255;49.892;17.884;2022-12-18T10:34:15;100601.53;;;-5.22
75658;BMP280;64255;49.892;17.884;2022-12-18T10:36:42;100603.59;;;-5.19
75658;BMP280;64255;49.892;17.884;2022-12-18T10:39:23;100599.16;;;-5.18
75658;BMP280;64255;49.892;17.884;2022-12-18T10:41:51;100588.81;;;-5.00
75658;BMP280;64255;49.892;17.884;2022-12-18T10:44:23;100587.38;;;-5.07
75658;BMP280;64255;49.892;17.884;2022-12-18T10:47:02;100585.13;;;-4.99
75658;BMP280;64255;49.892;17.884;2022-12-18T10:49:33;100588.63;;;-4.81
75658;BMP280;64255;49.892;17.884;2022-12-18T10:52:25;100581.59;;;-4.95
75658;BMP280;64255;49.892;17.884;2022-12-18T10:55:03;100586.31;;;-4.83
75658;BMP280;64255;49.892;17.884;2022-12-18T10:57:39;100580.66;;;-4.67
75658;BMP280;64255;49.892;17.884;2022-12-18T11:00:29;100583.94;;;-4.62
75658;BMP280;64255;49.892;17.884;2022-12-18T11:02:57;100584.63;;;-4.79
75658;BMP280;64255;49.892;17.884;2022-12-18T11:05:33;100583.84;;;-4.79
75658;BMP280;64255;49.892;17.884;2022-12-18T11:08:01;100577.25;;;-4.77
75658;BMP280;64255;49.892;17.884;2022-12-18T11:13:22;100578.88;;;-4.58
75658;BMP280;64255;49.892;17.884;2022-12-18T11:15:50;100586.34;;;-4.34
75658;BMP280;64255;49.892;17.884;2022-12-18T11:18:47;100585.47;;;-4.61
75658;BMP280;64255;49.892;17.884;2022-12-18T11:21:15;100597.97;;;-4.49
75658;BMP280;64255;49.892;17.884;2022-12-18T11:23:52;100582.16;;;-4.75
75658;BMP280;64255;49.892;17.884;2022-12-18T11:26:20;100585.88;;;-4.99
75658;BMP280;64255;49.892;17.884;2022-12-18T11:29:22;100579.13;;;-4.68
75658;BMP280;64255;49.892;17.884;2022-12-18T11:31:50;100594.28;;;-4.48
75658;BMP280;64255;49.892;17.884;2022-12-18T11:34:30;100598.41;;;-4.55
75658;BMP280;64255;49.892;17.884;2022-12-18T11:37:00;100604.97;;;-4.27
75658;BMP280;64255;49.892;17.884;2022-12-18T11:39:42;100614.72;;;-4.59
75658;BMP280;64255;49.892;17.884;2022-12-18T11:42:25;100616.63;;;-4.73
75658;BMP280;64255;49.892;17.884;2022-12-18T11:45:23;100617.00;;;-4.57
75658;BMP280;64255;49.892;17.884;2022-12-18T11:48:27;100610.75;;;-4.47
75658;BMP280;64255;49.892;17.884;2022-12-18T11:51:03;100610.50;;;-4.28
75658;BMP280;64255;49.892;17.884;2022-12-18T11:53:31;100619.41;;;-4.38
75658;BMP280;64255;49.892;17.884;2022-12-18T12:01:50;100615.91;;;-4.65
75658;BMP280;64255;49.892;17.884;2022-12-18T12:16:00;100624.53;;;-5.10
75658;BMP280;64255;49.892;17.884;2022-12-18T12:25:18;100614.31;;;-5.43
75658;BMP280;64255;49.892;17.884;2022-12-18T12:28:09;100608.28;;;-5.43
75658;BMP280;64255;49.892;17.884;2022-12-18T12:34:20;100617.69;;;-5.20
75658;BMP280;64255;49.892;17.884;2022-12-18T12:39:52;100619.44;;;-4.92
75658;BMP280;64255;49.892;17.884;2022-12-18T12:42:41;100612.81;;;-4.98
75658;BMP280;64255;49.892;17.884;2022-12-18T12:45:36;100608.44;;;-5.26
75658;BMP280;64255;49.892;17.884;2022-12-18T12:48:36;100611.97;;;-5.30
75658;BMP280;64255;49.892;17.884;2022-12-18T12:51:28;100605.78;;;-5.35
75658;BMP280;64255;49.892;17.884;2022-12-18T12:53:59;100620.13;;;-5.46
75658;BMP280;64255;49.892;17.884;2022-12-18T12:59:57;100614.00;;;-5.41
75658;BMP280;64255;49.892;17.884;2022-12-18T13:02:59;100615.66;;;-5.46
75658;BMP280;64255;49.892;17.884;2022-12-18T13:06:02;100616.28;;;-5.26
75658;BMP280;64255;49.892;17.884;2022-12-18T13:08:58;100609.38;;;-5.44
75658;BMP280;64255;49.892;17.884;2022-12-18T13:11:43;100619.31;;;-5.47
75658;BMP280;64255;49.892;17.884;2022-12-18T13:14:44;100610.88;;;-5.29
75658;BMP280;64255;49.892;17.884;2022-12-18T13:20:12;100604.78;;;-5.39
75658;BMP280;64255;49.892;17.884;2022-12-18T13:22:48;100615.09;;;-4.97
75658;BMP280;64255;49.892;17.884;2022-12-18T13:25:32;100605.59;;;-4.93
75658;BMP280;64255;49.892;17.884;2022-12-18T13:43:39;100611.66;;;-5.06
75658;BMP280;64255;49.892;17.884;2022-12-18T13:46:22;100615.56;;;-4.95
75658;BMP280;64255;49.892;17.884;2022-12-18T13:51:25;100615.38;;;-5.44
75658;BMP280;64255;49.892;17.884;2022-12-18T13:53:59;100620.13;;;-5.23
75658;BMP280;64255;49.892;17.884;2022-12-18T13:56:33;100624.59;;;-5.61
75658;BMP280;64255;49.892;17.884;2022-12-18T13:59:33;100627.59;;;-5.67
75658;BMP280;64255;49.892;17.884;2022-12-18T14:02:15;100625.97;;;-5.91
75658;BMP280;64255;49.892;17.884;2022-12-18T14:04:48;100630.81;;;-5.98
75658;BMP280;64255;49.892;17.884;2022-12-18T14:07:23;100638.34;;;-6.11
75658;BMP280;64255;49.892;17.884;2022-12-18T14:10:15;100634.19;;;-6.12
75658;BMP280;64255;49.892;17.884;2022-12-18T14:12:48;100638.97;;;-6.19
75658;BMP280;64255;49.892;17.884;2022-12-18T14:20:49;100636.97;;;-5.94
75658;BMP280;64255;49.892;17.884;2022-12-18T14:23:36;100640.06;;;-6.20
75658;BMP280;64255;49.892;17.884;2022-12-18T14:26:25;100652.81;;;-6.04
75658;BMP280;64255;49.892;17.884;2022-12-18T14:28:53;100654.56;;;-6.28
75658;BMP280;64255;49.892;17.884;2022-12-18T14:31:30;100660.66;;;-5.91
75658;BMP280;64255;49.892;17.884;2022-12-18T14:33:57;100646.25;;;-6.02
75658;BMP280;64255;49.892;17.884;2022-12-18T14:36:28;100656.31;;;-5.81
75658;BMP280;64255;49.892;17.884;2022-12-18T14:38:58;100655.00;;;-6.26
75658;BMP280;64255;49.892;17.884;2022-12-18T14:41:26;100657.94;;;-6.46
75658;BMP280;64255;49.892;17.884;2022-12-18T14:43:54;100655.28;;;-6.41
75658;BMP280;64255;49.892;17.884;2022-12-18T14:46:38;100655.34;;;-6.46
75658;BMP280;64255;49.892;17.884;2022-12-18T14:49:34;100658.78;;;-6.65
75658;BMP280;64255;49.892;17.884;2022-12-18T14:52:18;100658.84;;;-6.70
75658;BMP280;64255;49.892;17.884;2022-12-18T14:54:48;100662.25;;;-6.89
75658;BMP280;64255;49.892;17.884;2022-12-18T14:57:29;100668.72;;;-7.05
75658;BMP280;64255;49.892;17.884;2022-12-18T15:00:14;100670.97;;;-6.99
75658;BMP280;64255;49.892;17.884;2022-12-18T15:02:43;100669.84;;;-7.12
75658;BMP280;64255;49.892;17.884;2022-12-18T15:05:30;100671.91;;;-7.08
75658;BMP280;64255;49.892;17.884;2022-12-18T15:08:00;100674.13;;;-7.21
75658;BMP280;64255;49.892;17.884;2022-12-18T15:10:33;100684.00;;;-7.18
75658;BMP280;64255;49.892;17.884;2022-12-18T15:20:54;100688.66;;;-6.43
75658;BMP280;64255;49.892;17.884;2022-12-18T15:23:52;100696.09;;;-6.03
75658;BMP280;64255;49.892;17.884;2022-12-18T15:26:22;100693.13;;;-6.11
75658;BMP280;64255;49.892;17.884;2022-12-18T15:28:55;100683.97;;;-5.80
75658;BMP280;64255;49.892;17.884;2022-12-18T15:31:32;100693.53;;;-5.76
75658;BMP280;64255;49.892;17.884;2022-12-18T15:34:16;100697.06;;;-6.13
75658;BMP280;64255;49.892;17.884;2022-12-18T15:36:45;100702.63;;;-6.72
75658;BMP280;64255;49.892;17.884;2022-12-18T15:39:14;100708.88;;;-6.68
75658;BMP280;64255;49.892;17.884;2022-12-18T15:41:41;100717.50;;;-6.21
75658;BMP280;64255;49.892;17.884;2022-12-18T15:44:25;100717.75;;;-5.89
75658;BMP280;64255;49.892;17.884;2022-12-18T15:46:52;100716.59;;;-5.69
75658;BMP280;64255;49.892;17.884;2022-12-18T15:49:19;100715.00;;;-6.26
75658;BMP280;64255;49.892;17.884;2022-12-18T15:51:53;100711.25;;;-7.34
75658;BMP280;64255;49.892;17.884;2022-12-18T15:54:23;100703.78;;;-6.59
75658;BMP280;64255;49.892;17.884;2022-12-18T15:56:50;100706.13;;;-7.40
75658;BMP280;64255;49.892;17.884;2022-12-18T15:59:20;100698.41;;;-7.74
75658;BMP280;64255;49.892;17.884;2022-12-18T16:01:50;100687.94;;;-7.20
75658;BMP280;64255;49.892;17.884;2022-12-18T16:04:20;100695.53;;;-7.24
75658;BMP280;64255;49.892;17.884;2022-12-18T16:06:48;100691.84;;;-7.91